Terminal Aerodrome Forecast
Issued by NWS

Home | Current Version | Previous Version | Text Only | Print | Product List | Glossary On
Versions: 1 2 3 4 5 6 7 8 9 10 11 12 13 14
000
FTUS42 KMLB 020500
TAFSFB
TAF
KSFB 020535Z 0206/0306 14003KT P6SM SCT120 BKN250
     FM021500 08005KT P6SM SCT030 SCT250
     FM021800 09010KT P6SM VCTS SCT040CB BKN080 BKN250
     FM022200 10008KT P6SM FEW040 BKN100=

USA.gov is the U.S. government's official web portal to all federal, state and local government web resources and services.